Time;durP1;ratioP1;P1;durP2;ratioP2;P2;SDS_P1;SDS_P2;PMS_P1;PMS_P2;Temp;Humidity;BMP_temperature;BMP_pressure;BME280_temperature;BME280_humidity;BME280_pressure;Samples;Min_cycle;Max_cycle;Signal;HPM_P1;HPM_P2
2022/10/01 00:00:19;;;;;;;5.68;3.97;;;;;;;16.61;100.00;94820.09;5091439;28;20689;-62
2022/10/01 00:02:45;;;;;;;7.03;3.92;;;;;;;16.78;100.00;94834.53;5091319;28;20229;-61
2022/10/01 00:05:11;;;;;;;6.88;4.22;;;;;;;16.63;99.93;94833.56;5091055;28;20311;-60
2022/10/01 00:07:42;;;;;;;5.78;4.05;;;;;;;16.97;100.00;94835.13;5091032;28;20191;-60
2022/10/01 00:10:09;;;;;;;5.00;4.30;;;;;;;16.86;99.59;94856.00;5091377;28;20212;-61
2022/10/01 00:12:36;;;;;;;5.68;4.60;;;;;;;16.88;99.71;94844.59;5091038;28;20176;-61
2022/10/01 00:15:02;;;;;;;7.45;4.40;;;;;;;16.83;99.52;94846.06;5091430;28;20211;-63
2022/10/01 00:17:28;;;;;;;4.97;4.05;;;;;;;16.96;95.96;94893.41;5090929;28;20184;-61
2022/10/01 00:19:53;;;;;;;5.80;4.20;;;;;;;16.86;96.16;94884.25;5091067;28;20208;-60
2022/10/01 00:22:19;;;;;;;7.15;4.15;;;;;;;16.76;98.46;94851.84;5091434;28;20176;-62
2022/10/01 00:24:46;;;;;;;6.95;3.78;;;;;;;16.80;100.00;94836.91;5094579;28;20219;-61
2022/10/01 00:27:12;;;;;;;7.30;3.97;;;;;;;16.94;100.00;94838.81;5076376;28;20184;-63
2022/10/01 00:29:39;;;;;;;4.95;4.45;;;;;;;16.99;97.05;94879.44;5094414;28;20214;-60
2022/10/01 00:32:04;;;;;;;11.18;4.50;;;;;;;17.07;96.08;94882.75;5094403;28;20184;-61
2022/10/01 00:34:30;;;;;;;5.80;4.22;;;;;;;16.85;96.02;94883.44;5094725;28;20218;-62
2022/10/01 00:36:55;;;;;;;6.72;4.25;;;;;;;16.91;95.29;94892.28;5076191;28;20274;-60
2022/10/01 00:39:22;;;;;;;5.63;4.05;;;;;;;16.76;97.97;94859.56;5094503;28;20219;-61
2022/10/01 00:41:49;;;;;;;4.63;4.15;;;;;;;16.72;96.55;94870.31;5094448;28;20801;-64
2022/10/01 00:44:30;;;;;;;5.95;4.57;;;;;;;16.91;97.54;94859.66;5094287;28;20273;-62
2022/10/01 00:47:01;;;;;;;5.45;3.90;;;;;;;16.67;99.83;94847.69;5094189;28;20249;-61
2022/10/01 00:49:30;;;;;;;4.35;3.95;;;;;;;16.73;97.21;94870.13;5094180;28;20215;-61
2022/10/01 00:52:01;;;;;;;5.43;3.72;;;;;;;16.78;96.59;94874.78;5094032;28;20180;-60
2022/10/01 00:54:42;;;;;;;5.20;3.63;;;;;;;16.73;97.31;94859.88;5094402;28;20214;-63
2022/10/01 00:57:08;;;;;;;7.97;4.60;;;;;;;16.33;100.00;94810.28;5075871;28;20241;-63
2022/10/01 00:59:34;;;;;;;6.97;4.18;;;;;;;16.29;100.00;94834.66;5094291;28;20204;-61
2022/10/01 01:02:00;;;;;;;5.55;4.28;;;;;;;16.37;100.00;94817.50;5094034;28;20224;-60
2022/10/01 01:04:26;;;;;;;7.22;4.43;;;;;;;16.49;100.00;94823.13;5101714;22;20320;-61
2022/10/01 01:06:56;;;;;;;7.72;4.30;;;;;;;16.57;100.00;94836.78;5093874;28;20228;-61
2022/10/01 01:09:26;;;;;;;5.95;4.70;;;;;;;16.86;100.00;94832.88;5093854;28;20269;-62
2022/10/01 01:12:00;;;;;;;5.45;4.30;;;;;;;16.76;100.00;94820.22;5093814;28;20203;-61
2022/10/01 01:14:41;;;;;;;7.05;3.92;;;;;;;16.77;100.00;94858.56;5093946;28;20227;-61
2022/10/01 01:17:13;;;;;;;5.28;4.00;;;;;;;16.55;100.00;94836.13;5094421;28;20238;-61
2022/10/01 01:20:00;;;;;;;5.97;3.92;;;;;;;16.32;100.00;94799.22;5093972;28;20222;-61
2022/10/01 01:22:31;;;;;;;8.52;4.78;;;;;;;16.65;100.00;94861.63;5093567;28;20184;-63
2022/10/01 01:25:07;;;;;;;4.20;3.80;;;;;;;16.14;100.00;94838.81;5093800;28;20216;-62
2022/10/01 01:28:10;;;;;;;8.13;4.50;;;;;;;16.19;100.00;94827.13;5093884;28;20563;-60
2022/10/01 01:30:40;;;;;;;5.93;3.92;;;;;;;16.35;100.00;94847.66;5054671;28;20255;-62
2022/10/01 01:33:11;;;;;;;5.18;4.68;;;;;;;16.32;100.00;94860.78;5075326;28;20188;-62
2022/10/01 01:35:45;;;;;;;6.10;4.28;;;;;;;15.96;100.00;94769.72;5092445;28;20212;-60
2022/10/01 01:38:15;;;;;;;5.70;4.30;;;;;;;15.53;100.00;94769.97;5093471;28;20675;-62
2022/10/01 01:40:43;;;;;;;6.25;4.53;;;;;;;15.92;100.00;94824.84;5075081;28;20218;-62
2022/10/01 01:43:20;;;;;;;7.80;4.18;;;;;;;16.05;100.00;94852.59;5093288;28;20184;-60
2022/10/01 01:45:50;;;;;;;5.07;4.53;;;;;;;16.02;100.00;94856.25;5093262;28;20207;-60
2022/10/01 01:48:15;;;;;;;7.47;4.30;;;;;;;15.43;100.00;94805.19;5093404;28;20216;-59
2022/10/01 01:50:54;;;;;;;5.05;4.53;;;;;;;15.29;100.00;94806.53;5093249;28;20250;-63
2022/10/01 01:53:20;;;;;;;5.60;4.45;;;;;;;15.75;100.00;94839.41;5058766;28;20184;-61
2022/10/01 01:55:48;;;;;;;5.80;4.47;;;;;;;15.66;100.00;94834.38;5074916;28;20172;-62
2022/10/01 01:58:15;;;;;;;4.93;4.43;;;;;;;15.61;100.00;94834.88;5075655;28;20188;-62
2022/10/01 02:00:41;;;;;;;5.32;3.83;;;;;;;15.70;100.00;94845.94;5093151;28;20215;-60
2022/10/01 02:03:08;;;;;;;6.47;4.47;;;;;;;15.33;100.00;94815.50;5074777;28;20196;-62
2022/10/01 02:05:44;;;;;;;5.63;4.53;;;;;;;15.58;100.00;94821.56;5092816;28;20212;-63
2022/10/01 02:08:18;;;;;;;8.10;4.75;;;;;;;15.63;100.00;94844.97;5092995;28;20260;-63
2022/10/01 02:10:52;;;;;;;6.07;4.30;;;;;;;15.98;100.00;94881.44;5100713;22;20614;-62
2022/10/01 02:13:37;;;;;;;4.78;4.38;;;;;;;15.97;100.00;94889.28;5074804;28;20693;-63
2022/10/01 02:16:26;;;;;;;7.40;5.03;;;;;;;15.34;100.00;94867.56;5054703;28;20196;-62
2022/10/01 02:19:02;;;;;;;6.22;4.85;;;;;;;15.60;100.00;94865.75;5072764;28;20307;-60
2022/10/01 02:21:41;;;;;;;6.72;4.82;;;;;;;15.72;100.00;94890.97;5072629;28;20219;-61
2022/10/01 02:24:30;;;;;;;7.13;4.65;;;;;;;15.41;100.00;94866.00;5072593;28;20749;-63
2022/10/01 02:26:59;;;;;;;7.82;4.97;;;;;;;15.23;100.00;94834.53;5072448;28;20639;-64
2022/10/01 02:29:26;;;;;;;6.30;4.60;;;;;;;15.40;100.00;94892.56;5072167;28;20702;-62
2022/10/01 02:31:54;;;;;;;7.30;5.22;;;;;;;15.05;100.00;94868.69;5072209;28;20568;-62
2022/10/01 02:34:23;;;;;;;6.75;5.45;;;;;;;15.19;100.00;94864.75;5072553;28;20244;-62
2022/10/01 02:36:52;;;;;;;8.82;4.90;;;;;;;15.13;100.00;94876.41;5072343;28;20188;-63
2022/10/01 02:39:20;;;;;;;7.72;5.35;;;;;;;14.85;100.00;94872.41;5072144;28;20226;-61
2022/10/01 02:41:49;;;;;;;6.03;4.82;;;;;;;15.09;100.00;94876.88;5072196;28;20238;-65
2022/10/01 02:44:20;;;;;;;12.80;5.05;;;;;;;15.10;100.00;94873.34;5072262;28;20217;-62
2022/10/01 02:47:06;;;;;;;7.22;5.90;;;;;;;14.93;100.00;94884.44;5053941;28;20693;-63
2022/10/01 02:49:33;;;;;;;6.57;5.13;;;;;;;15.30;100.00;94899.56;5072253;28;20211;-59
2022/10/01 02:52:02;;;;;;;6.13;4.97;;;;;;;15.57;100.00;94917.34;5053912;28;20246;-60
2022/10/01 02:54:41;;;;;;;4.88;4.35;;;;;;;15.52;100.00;94951.09;5072149;28;20250;-60
2022/10/01 02:57:23;;;;;;;7.13;5.18;;;;;;;15.42;100.00;94919.66;5071876;28;20686;-59
2022/10/01 03:00:14;;;;;;;7.25;4.95;;;;;;;15.46;100.00;94918.41;5071995;28;20220;-63
2022/10/01 03:02:39;;;;;;;7.18;4.72;;;;;;;15.45;100.00;94923.69;5071903;28;20290;-62
2022/10/01 03:05:05;;;;;;;5.90;4.55;;;;;;;15.60;100.00;94935.78;5071442;28;20639;-61
2022/10/01 03:07:35;;;;;;;6.55;4.40;;;;;;;15.66;100.00;94947.16;5071741;28;20188;-61
2022/10/01 03:10:02;;;;;;;5.65;4.72;;;;;;;15.81;100.00;94971.28;5071896;28;20596;-59
2022/10/01 03:12:28;;;;;;;6.22;4.63;;;;;;;15.90;100.00;94970.34;5071812;28;20633;-62
2022/10/01 03:14:53;;;;;;;5.13;4.57;;;;;;;15.78;100.00;94951.88;5072007;28;20295;-62
2022/10/01 03:17:19;;;;;;;6.85;4.50;;;;;;;15.75;100.00;94952.19;5071653;28;20569;-62
2022/10/01 03:19:44;;;;;;;5.55;4.72;;;;;;;15.68;100.00;94935.00;5071554;28;20209;-62
2022/10/01 03:22:13;;;;;;;8.57;4.50;;;;;;;15.73;100.00;94954.09;5071543;28;20272;-62
2022/10/01 03:24:39;;;;;;;9.15;4.90;;;;;;;15.70;100.00;94945.91;5071307;28;20740;-62
2022/10/01 03:27:04;;;;;;;6.30;4.70;;;;;;;15.72;100.00;94937.09;5071658;28;20188;-63
2022/10/01 03:29:30;;;;;;;6.22;5.15;;;;;;;15.72;100.00;94944.00;5071851;28;20220;-63
2022/10/01 03:31:55;;;;;;;5.78;4.40;;;;;;;15.71;100.00;94930.38;5071434;28;20200;-63
2022/10/01 03:34:21;;;;;;;7.80;5.43;;;;;;;15.65;100.00;94925.06;5071673;28;20266;-62
2022/10/01 03:36:48;;;;;;;5.97;5.28;;;;;;;15.74;100.00;94949.75;5071284;28;20181;-63
2022/10/01 03:39:14;;;;;;;8.20;5.05;;;;;;;15.78;100.00;94928.00;5053441;28;20213;-62
2022/10/01 03:41:40;;;;;;;5.65;4.47;;;;;;;15.68;100.00;94914.50;5071239;28;20192;-62
2022/10/01 03:44:05;;;;;;;7.75;5.18;;;;;;;15.36;100.00;94886.94;5071177;28;20221;-63
2022/10/01 03:46:31;;;;;;;5.43;4.85;;;;;;;15.32;100.00;94893.31;5053264;28;20647;-61
2022/10/01 03:48:58;;;;;;;7.50;6.00;;;;;;;15.13;100.00;94903.78;5071243;28;20208;-61
2022/10/01 03:51:23;;;;;;;13.57;5.90;;;;;;;15.42;100.00;94918.81;5071084;28;20181;-62
2022/10/01 03:53:49;;;;;;;9.40;5.97;;;;;;;15.45;100.00;94911.69;5071223;28;20266;-63
2022/10/01 03:56:14;;;;;;;6.45;5.82;;;;;;;15.30;100.00;94864.50;5053076;28;20181;-61
2022/10/01 03:58:40;;;;;;;11.55;5.65;;;;;;;15.26;100.00;94886.25;5070419;28;20213;-63
2022/10/01 04:01:05;;;;;;;13.02;6.85;;;;;;;15.16;100.00;94867.63;5053027;28;20181;-63
2022/10/01 04:03:31;;;;;;;8.93;6.35;;;;;;;15.13;100.00;94884.09;5070983;28;20188;-62
2022/10/01 04:05:57;;;;;;;8.63;5.90;;;;;;;14.90;100.00;94877.88;5070772;28;20248;-63
2022/10/01 04:08:23;;;;;;;12.48;6.03;;;;;;;15.06;100.00;94872.88;5070679;28;20689;-62
2022/10/01 04:10:48;;;;;;;11.45;6.13;;;;;;;15.21;100.00;94869.75;5070858;28;20185;-62
2022/10/01 04:13:15;;;;;;;6.43;5.38;;;;;;;15.14;100.00;94856.75;5070733;28;20181;-63
2022/10/01 04:15:41;;;;;;;8.55;6.20;;;;;;;14.98;100.00;94866.88;5070662;28;20282;-62
2022/10/01 04:18:07;;;;;;;8.80;6.53;;;;;;;15.22;100.00;94882.38;5070806;28;20658;-62
2022/10/01 04:20:35;;;;;;;9.57;6.75;;;;;;;15.17;100.00;94882.03;5070867;28;20207;-63
2022/10/01 04:23:01;;;;;;;11.52;6.43;;;;;;;15.24;100.00;94888.16;5096528;22;20705;-63
2022/10/01 04:25:27;;;;;;;8.85;6.05;;;;;;;15.05;100.00;94886.63;5091113;28;20268;-63
2022/10/01 04:27:54;;;;;;;10.88;6.53;;;;;;;15.15;100.00;94889.88;5090896;28;20199;-63
2022/10/01 04:30:20;;;;;;;14.30;7.20;;;;;;;14.97;100.00;94872.94;5090698;28;20196;-61
2022/10/01 04:32:46;;;;;;;8.50;5.80;;;;;;;15.11;100.00;94868.09;5090738;28;20642;-61
2022/10/01 04:35:11;;;;;;;7.40;6.55;;;;;;;15.38;100.00;94897.84;5090564;28;20204;-61
2022/10/01 04:37:38;;;;;;;11.07;6.00;;;;;;;15.27;100.00;94882.72;5090824;28;20609;-61
2022/10/01 04:40:04;;;;;;;10.65;5.95;;;;;;;15.50;100.00;94898.41;5072411;28;20204;-61
2022/10/01 04:42:30;;;;;;;9.05;5.88;;;;;;;15.73;100.00;94918.22;5090655;28;20181;-61
2022/10/01 04:44:56;;;;;;;8.02;5.80;;;;;;;15.64;100.00;94905.50;5090543;28;20290;-61
2022/10/01 04:47:22;;;;;;;8.73;6.20;;;;;;;15.53;100.00;94892.97;5090756;28;20214;-61
2022/10/01 04:49:47;;;;;;;8.65;5.93;;;;;;;15.18;100.00;94883.66;5072710;28;20204;-61
2022/10/01 04:52:13;;;;;;;11.88;6.80;;;;;;;15.42;100.00;94900.91;5090346;28;20253;-63
2022/10/01 04:54:38;;;;;;;9.75;6.47;;;;;;;15.57;100.00;94917.34;5090532;28;20208;-62
2022/10/01 04:57:04;;;;;;;11.85;6.50;;;;;;;15.34;100.00;94911.09;5090861;28;20267;-60
2022/10/01 04:59:30;;;;;;;16.40;7.55;;;;;;;15.15;100.00;94919.78;5072087;28;20224;-63
2022/10/01 05:01:56;;;;;;;12.93;7.05;;;;;;;15.26;100.00;94913.63;5090400;28;20230;-61
2022/10/01 05:04:21;;;;;;;14.05;7.57;;;;;;;15.43;100.00;94930.72;5090245;28;20216;-63
2022/10/01 05:06:47;;;;;;;7.75;5.93;;;;;;;15.91;100.00;94977.09;5072212;28;20291;-61
2022/10/01 05:09:12;;;;;;;8.88;5.68;;;;;;;15.54;100.00;94974.00;5090563;28;20704;-64
2022/10/01 05:11:38;;;;;;;7.50;5.75;;;;;;;15.63;100.00;94944.91;5093737;28;20727;-62
2022/10/01 05:14:04;;;;;;;9.10;5.65;;;;;;;15.85;100.00;94982.84;5093847;28;20723;-61
2022/10/01 05:16:29;;;;;;;9.38;5.75;;;;;;;15.40;100.00;94946.34;5093704;28;20282;-62
2022/10/01 05:18:55;;;;;;;5.72;4.55;;;;;;;15.80;100.00;95023.50;5093764;28;20639;-61
2022/10/01 05:21:20;;;;;;;8.77;5.55;;;;;;;15.78;100.00;95002.34;5093653;28;20224;-60
2022/10/01 05:23:46;;;;;;;11.07;5.18;;;;;;;15.59;100.00;94974.38;5093735;28;20208;-61
2022/10/01 05:26:12;;;;;;;9.05;5.60;;;;;;;15.49;100.00;94956.56;5075365;28;20298;-63
2022/10/01 05:28:43;;;;;;;6.65;5.03;;;;;;;15.98;100.00;94967.81;5093691;28;20199;-61
2022/10/01 05:31:09;;;;;;;9.40;5.60;;;;;;;15.65;100.00;94948.13;5076386;28;20176;-62
2022/10/01 05:33:35;;;;;;;9.48;5.80;;;;;;;15.54;100.00;94958.63;5093229;28;20180;-63
2022/10/01 05:36:03;;;;;;;14.57;6.32;;;;;;;15.45;100.00;94949.31;5093366;28;20185;-61
2022/10/01 05:38:29;;;;;;;9.73;5.53;;;;;;;15.98;100.00;94973.75;5075469;28;20196;-61
2022/10/01 05:40:54;;;;;;;10.07;6.03;;;;;;;15.91;100.00;94967.66;5093343;28;20180;-59
2022/10/01 05:43:20;;;;;;;11.63;6.65;;;;;;;15.74;100.00;94954.88;5093331;28;20218;-64
2022/10/01 05:45:46;;;;;;;13.10;6.50;;;;;;;15.75;100.00;94977.03;5092996;28;20300;-62
2022/10/01 05:48:11;;;;;;;8.48;6.25;;;;;;;15.77;100.00;94967.41;5093204;28;20192;-63
2022/10/01 05:50:39;;;;;;;12.48;6.38;;;;;;;16.28;100.00;94974.19;5074884;28;20215;-64
2022/10/01 05:53:06;;;;;;;14.23;6.22;;;;;;;15.79;100.00;94912.47;5093070;28;20218;-62
2022/10/01 05:55:35;;;;;;;11.48;6.38;;;;;;;15.91;100.00;94930.94;5093102;28;20294;-62
2022/10/01 05:58:03;;;;;;;8.70;6.55;;;;;;;16.17;100.00;94941.91;5074584;28;20188;-63
2022/10/01 06:00:30;;;;;;;16.77;7.68;;;;;;;16.45;100.00;94940.69;5092904;28;20223;-64
2022/10/01 06:03:03;;;;;;;10.38;6.95;;;;;;;16.12;100.00;94897.19;5093012;28;20329;-64
2022/10/01 06:05:31;;;;;;;17.83;7.25;;;;;;;16.45;100.00;94966.34;5092905;28;20227;-63
2022/10/01 06:07:56;;;;;;;15.63;8.30;;;;;;;16.39;100.00;94968.75;5092835;28;20184;-62
2022/10/01 06:10:23;;;;;;;15.70;8.90;;;;;;;16.51;100.00;94999.13;5092888;28;20231;-63
2022/10/01 06:12:49;;;;;;;19.02;7.90;;;;;;;16.49;100.00;94961.72;5092762;28;20595;-63
2022/10/01 06:15:16;;;;;;;12.45;8.32;;;;;;;16.34;100.00;94946.09;5092778;28;20211;-62
2022/10/01 06:17:45;;;;;;;16.35;8.75;;;;;;;16.40;100.00;94978.06;5092730;28;20196;-63
2022/10/01 06:20:16;;;;;;;14.63;8.77;;;;;;;16.24;100.00;94926.72;5074204;28;20215;-63
2022/10/01 06:22:42;;;;;;;18.25;9.07;;;;;;;15.94;100.00;94958.81;5092707;28;20181;-61
2022/10/01 06:25:14;;;;;;;15.27;9.20;;;;;;;16.20;100.00;94977.50;5092166;28;20297;-63
2022/10/01 06:27:40;;;;;;;11.35;8.15;;;;;;;16.17;100.00;94977.03;5092742;28;20245;-64
2022/10/01 06:30:07;;;;;;;11.75;7.93;;;;;;;16.12;100.00;94956.97;5092321;28;20665;-62
2022/10/01 06:32:32;;;;;;;14.18;7.75;;;;;;;16.40;100.00;94988.31;5092630;28;20211;-63
2022/10/01 06:34:58;;;;;;;13.20;8.23;;;;;;;15.91;100.00;94982.22;5092411;28;20231;-65
2022/10/01 06:37:24;;;;;;;13.57;8.73;;;;;;;15.69;100.00;94962.25;5092305;28;20286;-61
2022/10/01 06:39:49;;;;;;;13.35;7.65;;;;;;;16.12;100.00;94998.00;5092333;28;20204;-61
2022/10/01 06:42:15;;;;;;;12.70;8.07;;;;;;;16.35;100.00;94946.91;5092920;28;20575;-60
2022/10/01 06:44:41;;;;;;;13.23;7.93;;;;;;;16.27;100.00;94963.09;5092239;28;20208;-61
2022/10/01 06:47:07;;;;;;;10.20;7.65;;;;;;;16.35;100.00;95017.00;5092092;28;20202;-63
2022/10/01 06:49:33;;;;;;;11.05;7.97;;;;;;;16.04;100.00;94968.97;5099490;22;20287;-64
2022/10/01 06:54:43;;;;;;;9.60;6.90;;;;;;;16.96;100.00;94923.41;5092091;28;20242;-63
2022/10/01 06:57:08;;;;;;;10.68;7.80;;;;;;;17.32;100.00;94940.88;5092181;28;20210;-63
2022/10/01 06:59:35;;;;;;;14.23;8.43;;;;;;;17.27;100.00;95038.19;5092010;28;20233;-62
2022/10/01 07:02:04;;;;;;;16.23;11.55;;;;;;;17.18;100.00;95043.50;5091911;28;20645;-63
2022/10/01 07:04:29;;;;;;;22.85;16.17;;;;;;;17.20;100.00;95029.53;5091463;28;20316;-62
2022/10/01 07:06:56;;;;;;;13.82;8.27;;;;;;;17.21;100.00;95069.66;5091976;28;20685;-62
2022/10/01 07:09:25;;;;;;;17.17;11.52;;;;;;;17.22;100.00;95068.72;5091926;28;20208;-63
2022/10/01 07:11:53;;;;;;;11.38;7.13;;;;;;;17.55;100.00;95100.41;5092171;28;20184;-61
2022/10/01 07:14:20;;;;;;;11.20;8.35;;;;;;;17.31;100.00;95133.78;5073520;28;20653;-60
2022/10/01 07:16:45;;;;;;;8.55;7.43;;;;;;;17.52;97.59;95188.94;5091631;28;20192;-62
2022/10/01 07:19:11;;;;;;;9.23;6.78;;;;;;;17.75;100.00;95122.25;5091592;28;20266;-59
2022/10/01 07:21:36;;;;;;;20.02;6.65;;;;;;;17.87;100.00;95110.69;5091647;28;20188;-57
2022/10/01 07:24:02;;;;;;;12.32;6.53;;;;;;;18.26;100.00;95025.81;5091578;28;20196;-58
2022/10/01 07:26:27;;;;;;;11.98;6.00;;;;;;;18.35;95.69;95236.72;5091726;28;20271;-60
2022/10/01 07:29:00;;;;;;;10.02;6.03;;;;;;;18.20;94.92;95173.19;5073307;28;20311;-63
2022/10/01 07:31:25;;;;;;;9.95;6.35;;;;;;;18.01;95.97;95133.16;5091557;28;20192;-62
2022/10/01 07:33:56;;;;;;;11.75;7.25;;;;;;;18.18;96.80;95121.88;5070989;28;20269;-61
2022/10/01 07:36:21;;;;;;;12.07;7.90;;;;;;;18.19;94.99;95143.25;5071952;28;20231;-62
2022/10/01 07:38:49;;;;;;;10.45;6.20;;;;;;;18.34;95.87;95113.31;5091242;28;20243;-62
2022/10/01 07:41:16;;;;;;;9.70;6.05;;;;;;;18.58;95.22;95117.59;5091491;28;20195;-63
2022/10/01 07:43:42;;;;;;;11.07;5.47;;;;;;;18.62;93.80;95132.56;5091695;28;20295;-62
2022/10/01 07:46:08;;;;;;;7.75;5.35;;;;;;;18.94;90.62;95176.22;5091853;28;20641;-64
2022/10/01 07:48:34;;;;;;;9.82;7.07;;;;;;;19.00;91.91;95167.00;5091617;28;20192;-64
2022/10/01 07:51:00;;;;;;;7.78;4.45;;;;;;;19.18;90.93;95175.28;5073138;28;20602;-61
2022/10/01 07:53:26;;;;;;;9.05;5.97;;;;;;;19.28;90.76;95174.13;5090616;28;20238;-60
2022/10/01 07:55:51;;;;;;;8.88;5.22;;;;;;;19.31;86.21;95246.94;5091405;28;20176;-59
2022/10/01 07:58:17;;;;;;;9.25;5.35;;;;;;;19.36;86.03;95219.69;5091042;28;20197;-64
2022/10/01 08:00:43;;;;;;;10.02;5.15;;;;;;;19.15;88.62;95180.78;5091118;28;20214;-61
2022/10/01 08:03:11;;;;;;;5.65;4.65;;;;;;;19.30;84.51;95248.72;5091314;28;20241;-62
2022/10/01 08:05:45;;;;;;;9.57;4.60;;;;;;;19.11;85.20;95234.44;5091284;28;20219;-63
2022/10/01 08:08:10;;;;;;;8.27;5.72;;;;;;;18.89;88.37;95146.75;5090947;28;20189;-61
2022/10/01 08:10:37;;;;;;;7.57;4.63;;;;;;;18.95;90.51;95089.38;5072947;28;20218;-61
2022/10/01 08:13:07;;;;;;;12.00;6.50;;;;;;;18.97;92.44;95065.06;5090960;28;20188;-62
2022/10/01 08:15:34;;;;;;;9.15;5.18;;;;;;;19.21;87.23;95155.13;5073000;28;20239;-62
2022/10/01 08:18:01;;;;;;;8.35;4.70;;;;;;;19.24;87.86;95113.56;5090951;28;20176;-62
2022/10/01 08:20:27;;;;;;;5.28;4.55;;;;;;;19.23;88.96;95090.50;5091224;28;20255;-62
2022/10/01 08:22:53;;;;;;;7.75;5.18;;;;;;;19.15;87.80;95085.41;5072783;28;20192;-63
2022/10/01 08:25:18;;;;;;;10.15;6.32;;;;;;;18.72;90.38;95066.19;5091214;28;20663;-62
2022/10/01 08:27:43;;;;;;;12.82;5.20;;;;;;;18.69;89.79;95089.69;5091099;28;20192;-62
2022/10/01 08:30:09;;;;;;;8.23;5.85;;;;;;;18.84;86.85;95118.94;5091214;28;20265;-62
2022/10/01 08:32:35;;;;;;;16.00;5.50;;;;;;;18.87;89.14;95054.16;5090963;28;20196;-62
2022/10/01 08:35:01;;;;;;;10.32;5.88;;;;;;;18.71;91.83;95005.31;5091322;28;20210;-64
2022/10/01 08:37:28;;;;;;;11.50;5.72;;;;;;;18.54;90.02;95070.78;5090908;28;20549;-64
2022/10/01 08:39:54;;;;;;;10.35;5.13;;;;;;;18.65;90.81;95054.13;5072518;28;20211;-60
2022/10/01 08:42:28;;;;;;;9.27;5.05;;;;;;;18.68;88.72;95072.66;5090686;28;20176;-61
2022/10/01 08:44:54;;;;;;;10.40;5.65;;;;;;;18.33;92.98;94988.13;5093430;28;20215;-61
2022/10/01 08:47:32;;;;;;;10.40;6.38;;;;;;;18.31;93.36;94987.50;5094206;28;20190;-61
2022/10/01 08:50:18;;;;;;;8.80;4.97;;;;;;;18.55;95.09;94987.38;5094137;28;20302;-66
2022/10/01 08:52:51;;;;;;;6.63;5.68;;;;;;;18.50;91.24;94999.19;5094173;28;20180;-60
2022/10/01 08:55:23;;;;;;;13.95;5.75;;;;;;;18.53;93.66;94944.75;5094274;28;20375;-61
2022/10/01 08:57:55;;;;;;;16.98;5.78;;;;;;;18.28;94.54;94970.59;5093967;28;20199;-62
2022/10/01 09:00:21;;;;;;;10.50;6.07;;;;;;;18.27;94.52;94942.47;5094331;28;20200;-60
2022/10/01 09:02:48;;;;;;;12.90;6.10;;;;;;;18.26;96.55;94890.19;5093826;28;20188;-61
2022/10/01 09:05:23;;;;;;;9.82;5.22;;;;;;;18.29;95.91;94969.66;5075797;28;20648;-64
2022/10/01 09:08:02;;;;;;;12.60;6.07;;;;;;;18.43;93.49;95032.53;5094005;28;20600;-60
2022/10/01 09:10:39;;;;;;;8.10;4.97;;;;;;;18.39;95.00;95031.22;5075895;28;20203;-62
2022/10/01 09:13:42;;;;;;;9.35;5.82;;;;;;;18.53;92.42;95069.16;5075723;28;20191;-61
2022/10/01 09:16:19;;;;;;;9.95;5.10;;;;;;;18.32;95.27;95033.66;5094280;28;20188;-60
2022/10/01 09:18:45;;;;;;;7.28;5.00;;;;;;;18.39;95.42;95050.06;5093864;28;20246;-60
2022/10/01 09:21:19;;;;;;;11.02;6.10;;;;;;;18.34;94.37;95072.91;5075635;28;20295;-62
2022/10/01 09:24:07;;;;;;;11.65;6.13;;;;;;;18.25;95.57;95091.94;5093603;28;20216;-61
2022/10/01 09:26:36;;;;;;;13.70;7.20;;;;;;;18.29;96.02;95059.75;5075546;28;20227;-65
2022/10/01 09:29:08;;;;;;;8.77;6.15;;;;;;;18.48;96.75;95043.13;5075214;28;20212;-66
2022/10/01 09:31:43;;;;;;;15.18;6.45;;;;;;;18.25;99.19;95031.94;5093600;28;20192;-61
2022/10/01 09:34:15;;;;;;;11.07;6.68;;;;;;;18.38;99.78;95020.13;5093484;28;20253;-60
2022/10/01 09:37:22;;;;;;;11.70;7.05;;;;;;;18.31;100.00;95031.25;5075415;28;20245;-61
2022/10/01 09:40:39;;;;;;;7.68;5.85;;;;;;;18.32;100.00;94987.31;5075940;28;20216;-61
2022/10/01 09:43:07;;;;;;;21.35;14.73;;;;;;;18.27;100.00;94976.75;5048537;28;20290;-61
2022/10/01 09:45:33;;;;;;;9.27;4.65;;;;;;;18.43;99.54;95040.25;5075126;28;20212;-62
2022/10/01 09:48:37;;;;;;;12.73;5.68;;;;;;;18.56;97.21;95081.72;5093322;28;20188;-61
2022/10/01 09:51:28;;;;;;;7.32;5.88;;;;;;;18.64;100.00;95034.50;5093664;28;20188;-62
2022/10/01 09:54:06;;;;;;;13.95;6.47;;;;;;;18.56;100.00;94991.59;5093178;28;20203;-62
2022/10/01 09:56:43;;;;;;;12.70;7.25;;;;;;;18.35;100.00;94970.75;5092393;28;20614;-62
2022/10/01 09:59:17;;;;;;;10.27;6.88;;;;;;;18.58;100.00;94968.22;5074998;28;20239;-61
2022/10/01 10:01:50;;;;;;;15.73;7.88;;;;;;;18.32;100.00;94922.97;5093141;28;20214;-62
2022/10/01 10:04:22;;;;;;;17.88;6.80;;;;;;;18.43;100.00;94920.03;5074587;28;20291;-61
2022/10/01 10:06:48;;;;;;;12.55;5.93;;;;;;;18.68;100.00;94950.78;5093098;28;20189;-61
2022/10/01 10:09:17;;;;;;;10.13;6.35;;;;;;;18.65;100.00;94963.97;5092871;28;20271;-61
2022/10/01 10:11:44;;;;;;;12.93;6.32;;;;;;;18.73;99.04;95005.16;5092862;28;20204;-61
2022/10/01 10:14:19;;;;;;;11.93;5.78;;;;;;;18.71;98.38;95015.63;5092715;28;20208;-62
2022/10/01 10:16:47;;;;;;;8.25;5.50;;;;;;;18.73;98.43;95007.72;5092817;28;20215;-62
2022/10/01 10:19:25;;;;;;;14.23;6.70;;;;;;;18.82;99.88;94996.41;5092711;28;20250;-61
2022/10/01 10:22:08;;;;;;;11.35;6.68;;;;;;;18.63;100.00;94978.81;5092971;28;20215;-64
2022/10/01 10:24:35;;;;;;;12.43;5.65;;;;;;;18.80;100.00;95017.19;5092740;28;20208;-65
2022/10/01 10:27:04;;;;;;;14.68;6.65;;;;;;;18.65;100.00;94913.28;5092878;28;20550;-62
2022/10/01 10:29:35;;;;;;;10.43;6.10;;;;;;;18.58;100.00;94884.06;5092832;28;20669;-62
2022/10/01 10:32:23;;;;;;;8.05;6.13;;;;;;;18.77;100.00;94914.47;5092566;28;20216;-61
2022/10/01 10:34:50;;;;;;;8.75;6.57;;;;;;;18.76;100.00;94892.28;5092554;28;20284;-62
2022/10/01 10:37:20;;;;;;;19.58;8.48;;;;;;;18.54;100.00;94900.81;5092559;28;20176;-66
2022/10/01 10:39:52;;;;;;;11.43;6.85;;;;;;;18.74;100.00;94925.16;5092528;28;20685;-61
2022/10/01 10:42:21;;;;;;;11.02;7.20;;;;;;;18.70;100.00;94959.13;5092960;28;20199;-61
2022/10/01 10:44:48;;;;;;;8.73;6.65;;;;;;;18.62;100.00;94974.66;5094254;28;20248;-62
2022/10/01 10:47:17;;;;;;;12.65;8.10;;;;;;;18.48;100.00;94941.91;5092317;28;20191;-62
2022/10/01 10:49:51;;;;;;;7.90;6.55;;;;;;;18.75;100.00;94931.06;5092191;28;20216;-64
2022/10/01 10:52:28;;;;;;;7.97;6.97;;;;;;;18.68;100.00;94961.88;5092276;28;20184;-65
2022/10/01 10:54:55;;;;;;;9.05;7.00;;;;;;;18.55;100.00;94938.47;5092454;28;20296;-62
2022/10/01 10:57:28;;;;;;;9.65;6.43;;;;;;;18.53;100.00;94911.28;5073936;28;20195;-62
2022/10/01 11:00:12;;;;;;;6.97;6.28;;;;;;;18.69;100.00;94909.38;5092022;28;20240;-64
2022/10/01 11:02:40;;;;;;;11.80;6.88;;;;;;;18.57;100.00;94899.66;5091996;28;20275;-65
2022/10/01 11:05:20;;;;;;;9.23;6.88;;;;;;;18.58;100.00;94940.72;5092166;28;20216;-64
2022/10/01 11:07:47;;;;;;;10.02;7.00;;;;;;;18.58;100.00;94919.31;5073949;28;20188;-62
2022/10/01 11:10:25;;;;;;;13.98;7.45;;;;;;;18.56;100.00;94901.47;5073820;28;20299;-64
2022/10/01 11:13:38;;;;;;;10.93;6.72;;;;;;;18.64;100.00;94914.28;5073669;28;20726;-61
2022/10/01 11:16:38;;;;;;;7.50;6.05;;;;;;;18.61;100.00;94903.50;5064850;28;20248;-63
2022/10/01 11:19:25;;;;;;;9.27;5.90;;;;;;;18.73;100.00;94876.34;5091916;28;20212;-61
2022/10/01 11:22:02;;;;;;;10.55;7.32;;;;;;;18.76;100.00;94847.69;5091772;28;20188;-60
2022/10/01 11:24:49;;;;;;;10.40;6.25;;;;;;;18.89;100.00;94820.34;5091759;28;20261;-60
2022/10/01 11:27:23;;;;;;;8.13;6.03;;;;;;;18.72;100.00;94802.66;5091849;28;20196;-63
2022/10/01 11:30:08;;;;;;;6.97;5.80;;;;;;;18.79;100.00;94790.66;5091841;28;20291;-60
2022/10/01 11:32:44;;;;;;;8.82;5.20;;;;;;;18.77;100.00;94810.63;5091696;28;20746;-63
2022/10/01 11:35:21;;;;;;;10.85;5.80;;;;;;;18.81;100.00;94822.19;5091983;28;20231;-61
2022/10/01 11:37:57;;;;;;;11.30;6.03;;;;;;;18.86;100.00;94814.75;5091466;28;20218;-61
2022/10/01 11:40:23;;;;;;;9.93;5.88;;;;;;;19.21;100.00;94820.00;5091668;28;20309;-61